Lester Prairie, MN (55354)

5:25 PM CDT on July 26, 2016 (GMT -0500)
Coldwater Crossing | | Change Station

Elev 961 ft 44.89 °N, 93.89 °W | Updated 5 minutes ago

Clear
Clear
87.6 °F
Feels Like 86 °F
N
1.3
Wind Variable Wind from WNW
Gusts 5.4 mph

Today
High -- | Low -- °F
--% Chance of Precip.
Yesterday
High -- | Low -- °F
Precip. -- in
Pressure 29.99 in
Visibility 10.0 miles
Clouds Clear
Heat Index 86 °F
Dew Point 57 °F
Humidity 35%
Rainfall 0.00 in
Snow Depth Not available.
5:55 AM 8:48 PM
Waning Gibbous, 50% visible
METAR KGYL 262215Z AUTO 19007KT 10SM CLR 30/22 A2999 RMK AO2 T03020220
Pressure 29.99 in
Visibility 10.0 miles
Clouds Clear
Heat Index 86 °F
Dew Point 57 °F
Humidity 35%
Rainfall 0.00 in
Snow Depth Not available.
5:55 AM 8:48 PM
Waning Gibbous, 50% visible
METAR KGYL 262215Z AUTO 19007KT 10SM CLR 30/22 A2999 RMK AO2 T03020220

10-Day Weather Forecast

Almanac

Astronomy

Jul. 26, 2016 Rise Set
Actual Time
Civil Twilight
Nautical Twilight
Astronomical Twilight
Moon
Length of Visible Light
Length of Day
Tomorrow will be .
, % of the Moon is Illuminated

Today's Extremes

State Highs State Lows

Community

WunderPhotos

Upload Photos

1,927,717 photos uploaded!

WunderBlog® & News

Nearby

Air Quality

  Air Quality AQ Index Pollutant
Not available.

Snow Depth

Station Depth Elevation

Earthquake Activity

City Distance Mag. Time & Date
Minimum magnitude displayed is 2.5.

Coastal Water Temperatures

Place Temperature

Stations

Nearby Weather Stations

Station Location Temp. Windchill Dew Point Humidity Wind Precip. Elev Updated Type
                   

Watches & Warnings

There are currently no watches in effect.